Station MRNA2 - Marmion Island, AK Image indicating link to RSS feed of recent meteorological observations for station MRNA2


Conditions at MRNA2 as of
(1:12 am AKDT)
0912 GMT on 04/14/2024:
Note: This report is more than two hours old
     

Click on the graph icon in the table below to see a time series plot of the last five days of that observation.

5-day plot - Wind Direction Wind Direction (WDIR):SSW ( 210 deg true )
5-day plot - Wind Speed Wind Speed (WSPD): 1.0 kts
5-day plot - Wind Gust Wind Gust (GST): 2.9 kts
5-day plot - Air Temperature Air Temperature (ATMP): 38.3 °F
5-day plot - Dew Point Dew Point (DEWP): 34.5 °F
5-day plot - Wind Speed at 10 Meters Wind Speed at 10 meters (WSPD10M): 1.9 kts
5-day plot - Wind Speed at 20 Meters Wind Speed at 20 meters (WSPD20M): 1.9 kts
5-day plot -  Wind Speed, Wind Gust and Atmospheric Pressure Combined plot of Wind Speed, Gust, and Air Pressure
Previous observations
TIME
(AKDT)
5-day plot - Wind Direction
WDIR
 
5-day plot - Wind Speed
WSPD
kts
5-day plot - Wind Gust
GST
kts
5-day plot - Wave Height
WVHT
ft
5-day plot - Dominant Wave Period
DPD
sec
5-day plot - Average Wave Period
APD
sec
5-day plot - Mean Wave Direction
MWD
 
5-day plot - Atmospheric Pressure
PRES
in
5-day plot - Pressure Tendency
PTDY
in
5-day plot - Air Temperature
ATMP
°F
5-day plot - Water Temperature
WTMP
°F
5-day plot - Dew Point
DEWP
°F
5-day plot - Salinity
SAL
psu
5-day plot - Visibility
VIS
nmi
5-day plot - Tide (above MLLW)
TIDE
ft
2024-04-14 01:02 am- 0.0 1.9------ 38.3- 34.7---
2024-04-14 12:52 am SW 1.0 1.9------ 38.8- 34.9---
2024-04-14 12:42 am- 0.0 4.1------ 39.2- 35.2---
2024-04-14 12:32 amSSW 1.0 2.9------ 39.4- 35.4---
2024-04-14 12:22 am S 1.9 7.0------ 39.6- 35.1---
2024-04-14 12:12 amSSE 2.9 7.0------ 39.7- 35.1---
2024-04-14 12:02 am S 2.9 7.0------ 39.7- 35.2---
2024-04-13 11:52 pmSSE 4.1 8.0------ 39.6- 35.2---
2024-04-13 11:42 pmSSW 1.9 6.0------ 39.6- 35.2---
2024-04-13 11:32 pmSSW 2.9 8.9------ 39.6- 35.4---
2024-04-13 11:22 pmSSW 2.9 8.9------ 39.4- 35.4---
2024-04-13 11:12 pmSSW 1.9 6.0------ 39.6- 35.6---
2024-04-13 11:02 pm SW 1.9 5.1------ 39.7- 35.6---
2024-04-13 10:52 pm S 1.9 6.0------ 39.7- 35.8---
2024-04-13 10:42 pm S 2.9 8.9------ 39.7- 35.6---
2024-04-13 10:32 pm S 2.9 8.0------ 39.7- 36.0---
2024-04-13 10:22 pmSSE 4.1 9.9------ 39.7- 36.0---
2024-04-13 10:12 pmSSE 4.1 8.0------ 39.7- 36.1---
2024-04-13 10:02 pmSSE 5.1 12.0------ 39.7- 36.1---
2024-04-13 09:52 pmSSE 8.9 15.9------ 39.6- 36.0---
2024-04-13 09:42 pmSSE 8.9 15.0------ 39.7- 36.1---
2024-04-13 09:32 pmSSE 8.0 14.0------ 39.9- 36.1---
2024-04-13 09:22 pmSSE 5.1 15.0------ 40.3- 36.7---
2024-04-13 09:12 pm S 2.9 9.9------ 40.5- 36.7---
2024-04-13 09:02 pm S 2.9 8.9------ 40.6- 36.3---
2024-04-13 08:52 pm S 4.1 11.1------ 40.6- 36.1---
2024-04-13 08:42 pm S 5.1 14.0------ 40.6- 36.5---
2024-04-13 08:32 pmSSW 2.9 9.9------ 40.6- 36.3---
2024-04-13 08:22 pm S 4.1 13.0------ 40.8- 36.1---
2024-04-13 08:12 pm S 2.9 8.9------ 40.8- 36.5---
2024-04-13 08:02 pm S 4.1 12.0------ 41.0- 37.0---
2024-04-13 07:52 pm S 2.9 8.0------ 41.0- 37.4---
2024-04-13 07:42 pmSSE 4.1 8.9------ 41.2- 37.0---
2024-04-13 07:32 pmSSE 5.1 12.0------ 41.2- 36.9---
2024-04-13 07:22 pmSSE 7.0 13.0------ 41.2- 37.0---
2024-04-13 07:12 pm S 5.1 12.0------ 41.4- 37.4---
2024-04-13 07:02 pmSSE 6.0 15.9------ 41.4- 37.2---
2024-04-13 06:52 pmSSE 8.0 15.0------ 41.5- 37.2---
2024-04-13 06:42 pmSSE 5.1 11.1------ 41.7- 37.4---
2024-04-13 06:32 pmSSE 4.1 9.9------ 41.7- 37.2---
2024-04-13 06:22 pmSSE 4.1 8.0------ 41.9- 37.4---
2024-04-13 06:12 pmSSE 5.1 11.1------ 42.1- 37.2---
2024-04-13 06:02 pm S 2.9 8.9------ 42.6- 37.2---
2024-04-13 05:52 pm S 2.9 9.9------ 42.4- 37.0---
2024-04-13 05:42 pmSSE 6.0 12.0------ 42.1- 37.0---
2024-04-13 05:32 pm SE 5.1 8.9------ 41.7- 37.2---
2024-04-13 05:22 pm SE 5.1 8.9------ 41.7- 37.4---
2024-04-13 05:12 pm SE 8.0 14.0------ 41.7- 37.4---
2024-04-13 05:02 pm SE 8.0 14.0------ 41.9- 37.0---
2024-04-13 04:52 pm SE 7.0 12.0------ 41.7- 37.2---
2024-04-13 04:42 pmESE 8.9 15.9------ 41.5- 37.6---
2024-04-13 04:32 pm SE 9.9 19.0------ 41.4- 37.4---
2024-04-13 04:22 pmSSE 9.9 19.0------ 41.4- 37.4---
2024-04-13 04:12 pm SE 8.9 15.0------ 41.5- 37.6---
2024-04-13 03:52 pm SE 8.9 17.1------ 41.7- 37.9---
2024-04-13 03:42 pm SE 9.9 17.1------ 41.7- 37.8---
2024-04-13 03:32 pm SE 11.1 18.1------ 42.1- 37.8---
2024-04-13 03:22 pm SE 11.1 20.0------ 42.6- 37.9---
2024-04-13 03:12 pmESE 11.1 18.1------ 42.6- 37.9---
2024-04-13 03:02 pmESE 12.0 18.1------ 42.4- 37.9---
2024-04-13 02:52 pm SE 9.9 18.1------ 43.2- 38.1---
2024-04-13 02:42 pmESE 8.0 13.0------ 43.5- 38.5---
2024-04-13 02:32 pmESE 8.0 12.0------ 43.0- 38.5---
2024-04-13 02:22 pm E 8.0 13.0------ 42.4- 38.5---
2024-04-13 02:12 pm E 11.1 19.0------ 41.9- 38.5---
2024-04-13 02:02 pm E 11.1 17.1------ 42.8- 38.8---
2024-04-13 01:52 pmESE 8.9 14.0------ 42.8- 38.8---
2024-04-13 01:42 pmESE 8.9 15.0------ 42.3- 38.5---
2024-04-13 01:32 pmESE 9.9 18.1------ 41.9- 38.5---
2024-04-13 01:22 pm SE 11.1 20.0------ 41.7- 38.5---
2024-04-13 01:12 pm SE 8.0 15.9------ 41.7- 38.1---
2024-04-13 01:02 pm SE 8.0 14.0------ 41.7- 37.9---
2024-04-13 12:52 pm SE 9.9 18.1------ 41.7- 38.1---
2024-04-13 12:42 pm SE 8.0 17.1------ 41.7- 37.9---
2024-04-13 12:32 pmSSE 8.9 14.0------ 41.5- 37.8---
2024-04-13 12:22 pmSSE 8.9 15.9------ 41.4- 37.8---
2024-04-13 12:12 pm SE 8.9 17.1------ 41.4- 37.4---
2024-04-13 12:02 pm SE 8.0 15.9------ 41.7- 37.8---
2024-04-13 11:52 am E 4.1 9.9------ 41.9- 37.9---
2024-04-13 11:42 am E 5.1 8.0------ 42.1- 37.6---
2024-04-13 11:32 amESE 5.1 7.0------ 42.1- 37.4---
2024-04-13 11:22 am E 4.1 6.0------ 41.9- 37.0---
2024-04-13 11:12 am NE 5.1 7.0------ 41.4- 36.9---
2024-04-13 11:02 amSSE 2.9 5.1------ 41.7- 37.0---
2024-04-13 10:52 amSSE 2.9 7.0------ 41.4- 37.0---
2024-04-13 10:42 amESE 5.1 8.9------ 41.5- 37.2---
2024-04-13 10:32 amESE 2.9 6.0------ 41.9- 37.8---
2024-04-13 10:22 am E 4.1 7.0------ 41.9- 37.4---
2024-04-13 10:12 am NE 1.9 4.1------ 43.0- 37.8---
2024-04-13 10:02 am E 1.9 4.1------ 43.0- 37.8---
2024-04-13 09:52 amNNE 1.0 2.9------ 42.8- 37.9---
2024-04-13 09:42 am N 1.9 2.9------ 41.7- 37.6---
2024-04-13 09:32 amENE 2.9 6.0------ 41.0- 37.2---
2024-04-13 09:22 amENE 1.9 4.1------ 41.4- 37.2---
2024-04-13 09:12 am E 1.0 2.9------ 42.3- 38.1---
2024-04-13 09:02 am- 0.0 1.9------ 42.3- 38.3---
2024-04-13 08:52 am N 1.0 2.9------ 42.3- 38.5---